createdAt,value
2018-04-19T00:01:23.870Z,67.00
2018-04-19T00:03:51.915Z,66.80
2018-04-19T00:06:19.957Z,67.20
2018-04-19T00:08:48.019Z,66.90
2018-04-19T00:11:16.074Z,67.00
2018-04-19T00:13:44.115Z,67.20
2018-04-19T00:16:12.165Z,68.00
2018-04-19T00:18:40.206Z,66.00
2018-04-19T00:21:08.267Z,66.90
2018-04-19T00:23:36.310Z,66.80
2018-04-19T00:26:04.363Z,67.00
2018-04-19T00:28:32.402Z,66.90
2018-04-19T00:31:00.454Z,67.00
2018-04-19T00:33:28.500Z,67.20
2018-04-19T00:35:56.553Z,67.00
2018-04-19T00:38:24.590Z,66.60
2018-04-19T00:40:52.637Z,66.60
2018-04-19T00:43:20.678Z,66.40
2018-04-19T00:45:48.723Z,65.70
2018-04-19T00:48:16.787Z,65.60
2018-04-19T00:50:44.818Z,66.60
2018-04-19T00:53:12.854Z,65.70
2018-04-19T00:55:40.897Z,66.90
2018-04-19T00:58:08.942Z,66.80
2018-04-19T01:00:36.993Z,65.60
2018-04-19T01:03:05.038Z,66.00
2018-04-19T01:05:33.078Z,64.80
2018-04-19T01:08:01.114Z,64.60
2018-04-19T01:10:29.190Z,64.30
2018-04-19T01:12:57.237Z,64.90
2018-04-19T01:15:25.282Z,65.40
2018-04-19T01:17:53.330Z,64.70
2018-04-19T01:20:21.378Z,66.20
2018-04-19T01:22:49.419Z,65.20
2018-04-19T01:25:17.470Z,64.90
2018-04-19T01:27:46.276Z,64.80
2018-04-19T01:30:14.347Z,64.80
2018-04-19T01:32:42.400Z,65.30
2018-04-19T01:35:10.439Z,65.30
2018-04-19T01:37:38.518Z,65.70
2018-04-19T01:40:06.584Z,65.20
2018-04-19T01:42:34.632Z,64.20
2018-04-19T01:45:02.670Z,65.00
2018-04-19T01:47:30.717Z,65.30
2018-04-19T01:49:58.761Z,65.40
2018-04-19T01:52:26.804Z,65.50
2018-04-19T01:54:54.865Z,66.30
2018-04-19T01:57:22.902Z,65.40
2018-04-19T01:59:51.710Z,66.00
2018-04-19T02:02:19.758Z,65.50
2018-04-19T02:04:47.810Z,65.90
2018-04-19T02:07:15.870Z,66.40
2018-04-19T02:09:52.270Z,65.00
2018-04-19T02:12:20.333Z,65.70
2018-04-19T02:14:48.374Z,66.40
2018-04-19T02:17:22.666Z,67.20
2018-04-19T02:19:56.194Z,67.10
2018-04-19T02:22:30.498Z,67.70
2018-04-19T02:25:04.058Z,67.60
2018-04-19T02:27:32.108Z,67.50
2018-04-19T02:30:00.196Z,67.10
2018-04-19T02:32:28.240Z,67.70
2018-04-19T02:34:56.285Z,68.30
2018-04-19T02:37:24.325Z,68.70
2018-04-19T02:39:53.138Z,68.40
2018-04-19T02:42:21.190Z,68.40
2018-04-19T02:44:49.226Z,68.70
2018-04-19T02:47:17.284Z,68.90
2018-04-19T02:49:45.365Z,68.80
2018-04-19T02:52:13.398Z,68.90
2018-04-19T02:54:41.454Z,68.90
2018-04-19T02:57:09.610Z,68.30
2018-04-19T02:59:38.454Z,69.70
2018-04-19T03:02:06.503Z,69.10
2018-04-19T03:04:34.568Z,69.30
2018-04-19T03:07:02.617Z,67.60
2018-04-19T03:09:30.669Z,68.30
2018-04-19T03:11:58.759Z,69.70
2018-04-19T03:14:26.801Z,69.30
2018-04-19T03:16:54.838Z,69.80
2018-04-19T03:19:22.890Z,69.40
2018-04-19T03:21:50.933Z,69.80
2018-04-19T03:24:18.978Z,69.30
2018-04-19T03:26:47.038Z,70.10
2018-04-19T03:29:15.075Z,70.50
2018-04-19T03:31:43.884Z,70.70
2018-04-19T03:34:11.934Z,70.70
2018-04-19T03:36:39.970Z,70.60
2018-04-19T03:39:08.012Z,70.60
2018-04-19T03:41:36.066Z,70.80
2018-04-19T03:44:04.122Z,71.00
2018-04-19T03:46:32.930Z,70.50
2018-04-19T03:49:08.002Z,70.50
2018-04-19T03:51:36.076Z,70.40
2018-04-19T03:54:04.134Z,70.70
2018-04-19T03:56:32.197Z,71.00
2018-04-19T03:59:00.237Z,71.40
2018-04-19T04:01:29.037Z,71.20
2018-04-19T04:03:57.094Z,71.00
2018-04-19T04:06:25.130Z,72.30
2018-04-19T04:08:53.186Z,71.60
2018-04-19T04:11:21.218Z,71.70
2018-04-19T04:13:49.258Z,71.70
2018-04-19T04:16:29.186Z,71.70
2018-04-19T04:19:09.003Z,72.20
2018-04-19T04:21:48.882Z,72.10
2018-04-19T04:24:16.939Z,71.50
2018-04-19T04:26:45.039Z,71.90
2018-04-19T04:29:13.090Z,71.90
2018-04-19T04:31:41.962Z,71.40
2018-04-19T04:34:09.998Z,71.30
2018-04-19T04:36:38.050Z,71.80
2018-04-19T04:39:06.090Z,71.70
2018-04-19T04:41:34.125Z,70.80
2018-04-19T04:44:02.170Z,71.00
2018-04-19T04:46:30.210Z,71.00
2018-04-19T04:48:58.250Z,70.80
2018-04-19T04:51:26.310Z,70.90
2018-04-19T04:53:55.143Z,70.80
2018-04-19T04:56:23.154Z,70.60
2018-04-19T04:58:51.202Z,71.40
2018-04-19T05:01:29.385Z,71.80
2018-04-19T05:03:57.454Z,71.60
2018-04-19T05:06:25.494Z,72.10
2018-04-19T05:08:53.544Z,71.40
2018-04-19T05:11:21.590Z,70.90
2018-04-19T05:13:49.630Z,71.20
2018-04-19T05:16:17.666Z,72.20
2018-04-19T05:18:45.734Z,72.30
2018-04-19T05:21:13.779Z,72.50
2018-04-19T05:23:42.581Z,72.00
2018-04-19T05:26:10.701Z,72.00
2018-04-19T05:28:38.694Z,71.10
2018-04-19T05:31:06.754Z,72.10
2018-04-19T05:33:34.797Z,71.50
2018-04-19T05:36:03.609Z,73.30
2018-04-19T05:38:33.573Z,73.30
2018-04-19T05:41:01.618Z,73.00
2018-04-19T05:43:35.561Z,71.60
2018-04-19T05:46:03.622Z,72.70
2018-04-19T05:48:31.667Z,72.40
2018-04-19T05:51:01.621Z,73.30
2018-04-19T05:53:29.678Z,73.70
2018-04-19T05:55:57.733Z,73.90
2018-04-19T05:58:25.774Z,74.10
2018-04-19T06:00:53.834Z,74.10
2018-04-19T06:03:22.649Z,74.20
2018-04-19T06:05:50.691Z,74.10
2018-04-19T06:08:19.506Z,74.60
2018-04-19T06:10:47.550Z,74.50
2018-04-19T06:13:17.646Z,74.40
2018-04-19T06:15:45.733Z,74.40
2018-04-19T06:18:14.717Z,75.00
2018-04-19T06:20:42.782Z,75.20
2018-04-19T06:23:10.853Z,75.40
2018-04-19T06:25:38.895Z,75.10
2018-04-19T06:28:06.938Z,75.10
2018-04-19T06:30:35.766Z,75.30
2018-04-19T06:33:03.810Z,75.30
2018-04-19T06:35:31.897Z,74.70
2018-04-19T06:37:59.991Z,74.20
2018-04-19T06:40:33.880Z,75.50
2018-04-19T06:43:01.914Z,74.80
2018-04-19T06:45:30.727Z,74.70
2018-04-19T06:47:58.777Z,74.50
2018-04-19T06:50:27.985Z,75.10
2018-04-19T06:53:07.065Z,74.70
2018-04-19T06:55:35.158Z,74.30
2018-04-19T06:58:03.209Z,75.20
2018-04-19T07:00:31.270Z,75.90
2018-04-19T07:02:59.349Z,76.10
2018-04-19T07:05:27.393Z,76.80
2018-04-19T07:07:55.473Z,76.20
2018-04-19T07:10:23.533Z,76.50
2018-04-19T07:12:51.589Z,77.10
2018-04-19T07:15:20.417Z,76.50
2018-04-19T07:17:48.497Z,76.40
2018-04-19T07:20:16.595Z,75.80
2018-04-19T07:22:44.664Z,75.20
2018-04-19T07:25:12.734Z,75.80
2018-04-19T07:27:45.633Z,79.10
2018-04-19T07:30:13.691Z,78.10
2018-04-19T07:32:41.753Z,78.30
2018-04-19T07:35:09.838Z,77.50
2018-04-19T07:37:47.757Z,75.10
2018-04-19T07:40:16.602Z,77.80
2018-04-19T07:42:44.654Z,77.50
2018-04-19T07:45:12.711Z,78.70
2018-04-19T07:47:40.781Z,79.10
2018-04-19T07:50:08.821Z,78.00
2018-04-19T07:52:41.717Z,79.00
2018-04-19T07:55:09.794Z,77.80
2018-04-19T07:57:37.849Z,76.10
2018-04-19T08:00:05.915Z,76.10
2018-04-19T08:02:37.998Z,77.40
2018-04-19T08:05:06.053Z,79.70
2018-04-19T08:07:34.109Z,77.50
2018-04-19T08:10:02.173Z,76.50
2018-04-19T08:12:30.242Z,76.30
2018-04-19T08:14:58.302Z,76.40
2018-04-19T08:17:26.354Z,76.30
2018-04-19T08:19:54.438Z,74.20
2018-04-19T08:22:23.505Z,73.80
2018-04-19T08:24:51.562Z,74.50
2018-04-19T08:27:19.633Z,74.10
2018-04-19T08:29:47.713Z,74.40
2018-04-19T08:32:15.770Z,73.70
2018-04-19T08:34:43.858Z,72.20
2018-04-19T08:37:11.926Z,67.60
2018-04-19T08:39:40.022Z,67.20
2018-04-19T08:42:08.878Z,64.70
2018-04-19T08:44:36.988Z,64.80
2018-04-19T08:47:05.021Z,62.30
2018-04-19T08:49:34.150Z,61.00
2018-04-19T08:52:02.217Z,59.50
2018-04-19T08:54:30.291Z,59.60
2018-04-19T08:56:58.362Z,59.80
2018-04-19T08:59:26.425Z,58.30
2018-04-19T09:01:54.489Z,57.90
2018-04-19T09:04:22.628Z,58.50
2018-04-19T09:06:50.718Z,58.50
2018-04-19T09:09:18.774Z,56.60
2018-04-19T09:11:46.830Z,57.10
2018-04-19T09:14:14.929Z,56.50
2018-04-19T09:16:43.002Z,56.10
2018-04-19T09:19:15.617Z,55.50
2018-04-19T09:21:43.674Z,55.30
2018-04-19T09:24:11.749Z,53.50
2018-04-19T09:26:39.859Z,53.10
2018-04-19T09:29:07.931Z,54.20
2018-04-19T09:31:35.969Z,51.60
2018-04-19T09:34:04.055Z,50.80
2018-04-19T09:36:33.080Z,52.20
2018-04-19T09:39:01.118Z,50.80
2018-04-19T09:41:29.971Z,50.80
2018-04-19T09:43:58.052Z,50.80
2018-04-19T09:46:26.126Z,49.00
2018-04-19T09:48:54.190Z,48.00
2018-04-19T09:51:23.133Z,44.30
2018-04-19T09:53:51.210Z,44.00
2018-04-19T09:56:20.062Z,48.10
2018-04-19T10:01:52.112Z,46.40
2018-04-19T10:04:26.648Z,46.50
2018-04-19T10:06:54.747Z,46.40
2018-04-19T10:09:23.595Z,46.80
2018-04-19T10:11:51.660Z,46.80
2018-04-19T10:14:19.754Z,46.10
2018-04-19T10:16:47.829Z,46.90
2018-04-19T10:19:27.948Z,45.60
2018-04-19T10:21:56.018Z,45.90
2018-04-19T10:24:24.067Z,44.40
2018-04-19T10:26:57.025Z,48.50
2018-04-19T10:29:25.917Z,45.90
2018-04-19T10:31:53.978Z,45.30
2018-04-19T10:34:22.021Z,45.40
2018-04-19T10:36:50.316Z,46.50
2018-04-19T10:39:18.348Z,46.50
2018-04-19T10:41:46.392Z,45.60
2018-04-19T10:44:14.422Z,43.40
2018-04-19T10:46:42.551Z,42.40
2018-04-19T10:49:11.273Z,38.90
2018-04-19T10:51:45.930Z,45.00
2018-04-19T10:54:14.771Z,42.20
2018-04-19T10:56:42.783Z,42.20
2018-04-19T10:59:10.921Z,40.90
2018-04-19T11:01:38.994Z,40.00
2018-04-19T11:04:07.048Z,40.10
2018-04-19T11:06:37.113Z,39.10
2018-04-19T11:09:05.187Z,39.90
2018-04-19T11:11:33.274Z,41.80
2018-04-19T11:14:02.133Z,37.60
2018-04-19T11:16:30.966Z,38.50
2018-04-19T11:18:59.117Z,38.40
2018-04-19T11:21:27.918Z,42.20
2018-04-19T11:23:56.774Z,41.90
2018-04-19T11:26:25.658Z,41.00
2018-04-19T11:28:53.731Z,41.00
2018-04-19T11:31:21.830Z,42.60
2018-04-19T11:33:50.725Z,40.20
2018-04-19T11:36:19.538Z,38.00
2018-04-19T11:38:47.578Z,38.20
2018-04-19T11:41:18.463Z,35.70
2018-04-19T11:43:46.509Z,35.60
2018-04-19T11:46:14.539Z,39.60
2018-04-19T11:48:42.640Z,37.30
2018-04-19T11:51:11.453Z,37.20
2018-04-19T11:53:39.531Z,37.20
2018-04-19T11:56:11.677Z,39.30
2018-04-19T11:58:39.743Z,37.90
2018-04-19T12:01:07.819Z,36.40
2018-04-19T12:03:35.998Z,38.00
2018-04-19T12:06:04.078Z,33.20
2018-04-19T12:08:38.241Z,31.90
2018-04-19T12:11:06.316Z,36.80
2018-04-19T12:13:34.433Z,35.10
2018-04-19T12:16:03.235Z,35.20
2018-04-19T12:21:24.482Z,36.10
2018-04-19T12:23:52.577Z,36.30
2018-04-19T12:26:20.594Z,36.20
2018-04-19T12:28:48.696Z,37.70
2018-04-19T12:31:16.779Z,32.90
2018-04-19T12:33:44.854Z,35.70
2018-04-19T12:36:12.912Z,36.30
2018-04-19T12:38:40.951Z,30.20
2018-04-19T12:41:08.991Z,32.10
2018-04-19T12:43:38.774Z,34.60
2018-04-19T12:46:06.866Z,34.60
2018-04-19T12:48:34.937Z,33.80
2018-04-19T12:51:03.057Z,34.40
2018-04-19T12:53:31.898Z,31.40
2018-04-19T12:56:06.739Z,31.30
2018-04-19T12:58:35.541Z,32.60
2018-04-19T13:01:04.360Z,30.50
2018-04-19T13:03:32.423Z,30.60
2018-04-19T13:06:00.462Z,32.50
2018-04-19T13:08:29.308Z,30.70
2018-04-19T13:10:57.397Z,30.60
2018-04-19T13:13:25.467Z,31.30
2018-04-19T13:15:53.545Z,30.80
2018-04-19T13:18:21.585Z,30.80
2018-04-19T13:20:49.640Z,28.30
2018-04-19T13:23:17.718Z,31.20
2018-04-19T13:25:45.869Z,32.70
2018-04-19T13:28:13.862Z,29.60
2018-04-19T13:30:45.904Z,32.10
2018-04-19T13:33:13.948Z,30.20
2018-04-19T13:35:42.782Z,30.90
2018-04-19T13:38:10.866Z,30.90
2018-04-19T13:40:38.959Z,28.10
2018-04-19T13:43:11.873Z,29.50
2018-04-19T13:45:40.687Z,29.70
2018-04-19T13:48:08.722Z,29.70
2018-04-19T13:50:36.800Z,34.90
2018-04-19T13:53:05.642Z,30.00
2018-04-19T13:55:33.783Z,30.00
2018-04-19T13:58:01.887Z,31.70
2018-04-19T14:00:29.999Z,30.00
2018-04-19T14:02:58.082Z,28.80
2018-04-19T14:05:26.960Z,30.50
2018-04-19T14:07:54.953Z,30.60
2018-04-19T14:10:23.031Z,30.90
2018-04-19T14:13:14.782Z,30.00
2018-04-19T14:15:42.867Z,32.00
2018-04-19T14:18:10.927Z,27.10
2018-04-19T14:20:39.002Z,29.50
2018-04-19T14:23:07.106Z,28.30
2018-04-19T14:25:35.239Z,28.10
2018-04-19T14:28:03.273Z,28.80
2018-04-19T14:30:32.103Z,29.10
2018-04-19T14:33:00.141Z,29.20
2018-04-19T14:35:37.086Z,28.60
2018-04-19T14:38:05.133Z,30.60
2018-04-19T14:40:33.218Z,29.70
2018-04-19T14:43:01.307Z,30.80
2018-04-19T14:45:29.353Z,29.80
2018-04-19T14:47:57.429Z,30.00
2018-04-19T14:50:36.337Z,26.40
2018-04-19T14:53:04.412Z,29.60
2018-04-19T14:55:32.540Z,28.60
2018-04-19T14:58:00.597Z,28.00
2018-04-19T15:00:28.645Z,28.00
2018-04-19T15:02:56.709Z,30.10
2018-04-19T15:05:24.766Z,28.00
2018-04-19T15:07:52.835Z,29.80
2018-04-19T15:10:20.850Z,29.70
2018-04-19T15:12:48.968Z,28.60
2018-04-19T15:15:17.073Z,29.80
2018-04-19T15:17:45.116Z,25.20
2018-04-19T15:20:13.210Z,28.00
2018-04-19T15:22:41.254Z,25.30
2018-04-19T15:25:09.351Z,26.70
2018-04-19T15:27:37.499Z,28.30
2018-04-19T15:30:05.639Z,26.10
2018-04-19T15:32:33.683Z,25.50
2018-04-19T15:35:01.775Z,20.70
2018-04-19T15:37:34.647Z,21.10
2018-04-19T15:40:02.718Z,21.10
2018-04-19T15:42:30.789Z,22.20
2018-04-19T15:44:58.869Z,23.60
2018-04-19T15:47:27.728Z,25.50
2018-04-19T15:49:55.810Z,25.40
2018-04-19T15:52:23.886Z,25.30
2018-04-19T15:54:51.945Z,26.70
2018-04-19T15:57:20.034Z,27.30
2018-04-19T15:59:48.067Z,26.40
2018-04-19T16:02:17.242Z,25.20
2018-04-19T16:04:45.671Z,26.80
2018-04-19T16:07:15.722Z,26.20
2018-04-19T16:09:44.531Z,26.30
2018-04-19T16:12:12.622Z,26.30
2018-04-19T16:14:40.589Z,25.00
2018-04-19T16:17:08.740Z,26.50
2018-04-19T16:19:37.580Z,26.80
2018-04-19T16:24:56.999Z,26.50
2018-04-19T16:27:25.823Z,27.30
2018-04-19T16:29:53.855Z,27.30
2018-04-19T16:32:22.622Z,27.70
2018-04-19T16:34:50.729Z,27.60
2018-04-19T16:37:18.774Z,27.30
2018-04-19T16:39:46.845Z,27.20
2018-04-19T16:42:14.882Z,26.30
2018-04-19T16:44:42.932Z,26.90
2018-04-19T16:47:10.967Z,25.90
2018-04-19T16:49:39.096Z,27.60
2018-04-19T16:52:07.137Z,26.60
2018-04-19T16:54:35.178Z,25.60
2018-04-19T16:57:04.037Z,22.00
2018-04-19T16:59:32.072Z,21.80
2018-04-19T17:02:00.159Z,21.40
2018-04-19T17:04:28.172Z,20.80
2018-04-19T17:06:56.216Z,19.80
2018-04-19T17:09:24.281Z,19.70
2018-04-19T17:11:52.380Z,18.50
2018-04-19T17:14:20.439Z,18.20
2018-04-19T17:16:48.435Z,18.40
2018-04-19T17:19:16.575Z,17.70
2018-04-19T17:21:44.622Z,18.70
2018-04-19T17:24:12.731Z,18.80
2018-04-19T17:26:40.826Z,17.20
2018-04-19T17:29:08.903Z,17.70
2018-04-19T17:31:36.999Z,18.50
2018-04-19T17:34:05.083Z,17.70
2018-04-19T17:36:33.172Z,18.80
2018-04-19T17:39:01.250Z,19.30
2018-04-19T17:41:29.299Z,19.10
2018-04-19T17:43:57.338Z,20.40
2018-04-19T17:46:25.438Z,20.70
2018-04-19T17:48:53.517Z,20.50
2018-04-19T17:51:21.534Z,21.30
2018-04-19T17:53:50.371Z,23.10
2018-04-19T17:56:18.418Z,23.10
2018-04-19T17:58:46.452Z,23.10
2018-04-19T18:01:14.599Z,24.00
2018-04-19T18:03:42.651Z,24.10
2018-04-19T18:06:10.723Z,24.10
2018-04-19T18:08:38.774Z,25.20
2018-04-19T18:11:06.874Z,25.80
2018-04-19T18:13:35.882Z,26.50
2018-04-19T18:16:03.950Z,28.40
2018-04-19T18:18:32.029Z,29.90
2018-04-19T18:21:00.093Z,32.30
2018-04-19T18:23:28.162Z,34.90
2018-04-19T18:25:56.193Z,37.50
2018-04-19T18:28:24.290Z,38.00
2018-04-19T18:30:52.306Z,39.90
2018-04-19T18:33:21.183Z,39.60
2018-04-19T18:35:49.242Z,39.60
2018-04-19T18:38:17.318Z,40.30
2018-04-19T18:40:47.347Z,41.60
2018-04-19T18:43:15.413Z,41.70
2018-04-19T18:45:43.462Z,41.00
2018-04-19T18:48:11.523Z,41.90
2018-04-19T18:50:39.557Z,41.80
2018-04-19T18:53:09.341Z,42.30
2018-04-19T18:55:37.419Z,42.20
2018-04-19T18:58:05.483Z,41.80
2018-04-19T19:00:33.562Z,43.40
2018-04-19T19:03:01.659Z,44.00
2018-04-19T19:05:30.633Z,44.50
2018-04-19T19:07:59.486Z,43.60
2018-04-19T19:10:27.645Z,43.60
2018-04-19T19:12:55.731Z,41.30
2018-04-19T19:18:50.140Z,44.80
2018-04-19T19:21:18.190Z,45.00
2018-04-19T19:23:46.989Z,44.90
2018-04-19T19:26:19.878Z,44.80
2018-04-19T19:28:47.939Z,41.00
2018-04-19T19:31:15.960Z,44.00
2018-04-19T19:33:44.014Z,46.40
2018-04-19T19:36:12.069Z,46.90
2018-04-19T19:38:40.888Z,46.60
2018-04-19T19:41:08.948Z,46.50
2018-04-19T19:43:36.990Z,46.60
2018-04-19T19:46:05.807Z,43.50
2018-04-19T19:48:33.858Z,43.40
2018-04-19T19:51:01.900Z,45.20
2018-04-19T19:53:29.937Z,46.40
2018-04-19T19:55:57.994Z,46.90
2018-04-19T19:58:26.038Z,48.90
2018-04-19T20:00:54.854Z,49.10
2018-04-19T20:03:22.898Z,49.10
2018-04-19T20:05:51.727Z,48.90
2018-04-19T20:08:19.750Z,48.90
2018-04-19T20:10:48.594Z,50.50
2018-04-19T20:13:16.642Z,50.50
2018-04-19T20:15:44.693Z,48.70
2018-04-19T20:18:12.756Z,49.50
2018-04-19T20:20:40.799Z,50.00
2018-04-19T20:23:08.841Z,50.50
2018-04-19T20:25:36.910Z,50.20
2018-04-19T20:28:04.946Z,51.20
2018-04-19T20:30:33.753Z,51.50
2018-04-19T20:33:01.813Z,50.80
2018-04-19T20:35:29.950Z,49.70
2018-04-19T20:37:57.970Z,50.00
2018-04-19T20:40:26.031Z,51.30
2018-04-19T20:42:54.070Z,51.60
2018-04-19T20:45:22.137Z,51.30
2018-04-19T20:47:50.193Z,51.10
2018-04-19T20:50:18.229Z,50.20
2018-04-19T20:52:46.344Z,50.90
2018-04-19T20:55:14.395Z,51.90
2018-04-19T20:57:42.430Z,52.40
2018-04-19T21:00:11.238Z,52.60
2018-04-19T21:02:39.297Z,52.60
2018-04-19T21:05:07.343Z,52.90
2018-04-19T21:07:35.390Z,51.70
2018-04-19T21:10:03.449Z,52.10
2018-04-19T21:12:31.486Z,52.70
2018-04-19T21:15:00.298Z,52.70
2018-04-19T21:17:28.366Z,52.60
2018-04-19T21:19:56.409Z,52.30
2018-04-19T21:22:25.262Z,52.90
2018-04-19T21:24:53.318Z,52.70
2018-04-19T21:27:21.353Z,53.00
2018-04-19T21:29:49.390Z,53.20
2018-04-19T21:32:17.442Z,52.90
2018-04-19T21:34:45.492Z,53.00
2018-04-19T21:37:13.534Z,52.90
2018-04-19T21:39:42.414Z,54.20
2018-04-19T21:42:10.450Z,54.10
2018-04-19T21:44:38.490Z,54.10
2018-04-19T21:47:06.586Z,54.50
2018-04-19T21:49:34.621Z,54.80
2018-04-19T21:52:02.674Z,55.40
2018-04-19T21:54:30.715Z,55.00
2018-04-19T21:56:58.767Z,55.30
2018-04-19T21:59:26.809Z,54.80
2018-04-19T22:01:54.861Z,55.00
2018-04-19T22:04:22.898Z,55.20
2018-04-19T22:06:50.948Z,55.70
2018-04-19T22:09:19.030Z,55.10
2018-04-19T22:11:47.067Z,55.40
2018-04-19T22:14:15.101Z,54.60
2018-04-19T22:16:43.164Z,54.50
2018-04-19T22:19:11.967Z,55.60
2018-04-19T22:21:40.018Z,55.60
2018-04-19T22:24:08.071Z,55.50
2018-04-19T22:26:36.130Z,56.10
2018-04-19T22:29:04.170Z,55.60
2018-04-19T22:31:32.213Z,55.60
2018-04-19T22:34:00.259Z,56.30
2018-04-19T22:36:28.306Z,55.80
2018-04-19T22:38:56.369Z,56.00
2018-04-19T22:41:25.197Z,55.50
2018-04-19T22:43:53.234Z,55.60
2018-04-19T22:46:21.282Z,55.60
2018-04-19T22:48:49.338Z,56.10
2018-04-19T22:51:17.379Z,55.60
2018-04-19T22:53:45.442Z,56.30
2018-04-19T22:56:13.490Z,55.80
2018-04-19T22:58:41.523Z,56.30
2018-04-19T23:01:09.573Z,56.60
2018-04-19T23:03:37.629Z,54.90
2018-04-19T23:06:05.681Z,55.50
2018-04-19T23:08:33.726Z,55.90
2018-04-19T23:11:01.782Z,56.60
2018-04-19T23:13:29.819Z,56.70
2018-04-19T23:15:57.862Z,56.70
2018-04-19T23:18:39.447Z,56.90
2018-04-19T23:21:08.266Z,56.80
2018-04-19T23:23:36.298Z,56.60
2018-04-19T23:26:04.346Z,56.20
2018-04-19T23:28:32.419Z,56.70
2018-04-19T23:31:00.454Z,56.70
2018-04-19T23:33:28.502Z,56.40
2018-04-19T23:35:57.339Z,55.30
2018-04-19T23:38:25.378Z,55.30
2018-04-19T23:40:53.424Z,56.00
2018-04-19T23:43:21.465Z,57.20
2018-04-19T23:45:49.506Z,57.80
2018-04-19T23:48:17.554Z,57.80
2018-04-19T23:50:46.382Z,57.30
2018-04-19T23:53:14.437Z,57.30
2018-04-19T23:55:42.541Z,56.50
2018-04-19T23:58:10.594Z,57.00
